createdAt,value
2023-01-22T00:01:12.691Z,8.43
2023-01-22T00:03:45.559Z,8.45
2023-01-22T00:06:14.898Z,8.95
2023-01-22T00:08:43.389Z,7.53
2023-01-22T00:11:12.267Z,8.02
2023-01-22T00:13:40.349Z,9.30
2023-01-22T00:16:08.960Z,10.23
2023-01-22T00:18:36.924Z,9.07
2023-01-22T00:21:06.503Z,9.25
2023-01-22T00:23:34.597Z,6.60
2023-01-22T00:26:03.680Z,8.07
2023-01-22T00:28:32.562Z,8.15
2023-01-22T00:31:05.250Z,8.95
2023-01-22T00:33:33.713Z,8.43
2023-01-22T00:36:07.071Z,8.40
2023-01-22T00:38:35.105Z,8.65
2023-01-22T00:41:03.642Z,8.00
2023-01-22T00:43:33.494Z,8.13
2023-01-22T00:46:04.554Z,8.32
2023-01-22T00:48:32.880Z,8.85
2023-01-22T00:51:00.953Z,8.50
2023-01-22T00:53:30.289Z,8.20
2023-01-22T00:56:00.158Z,7.93
2023-01-22T00:58:30.165Z,8.07
2023-01-22T01:00:58.189Z,7.65
2023-01-22T01:03:30.500Z,7.35
2023-01-22T01:06:00.730Z,6.45
2023-01-22T01:08:31.599Z,7.18
2023-01-22T01:11:01.388Z,8.23
2023-01-22T01:13:30.175Z,8.10
2023-01-22T01:16:02.324Z,7.28
2023-01-22T01:18:31.396Z,7.25
2023-01-22T01:21:00.733Z,6.43
2023-01-22T01:23:29.486Z,7.35
2023-01-22T01:25:59.493Z,8.27
2023-01-22T01:28:28.688Z,7.72
2023-01-22T01:30:56.867Z,7.35
2023-01-22T01:33:27.862Z,7.22
2023-01-22T01:36:00.612Z,6.40
2023-01-22T01:38:32.509Z,6.80
2023-01-22T01:41:04.706Z,7.45
2023-01-22T01:43:35.375Z,7.53
2023-01-22T01:46:05.155Z,7.00
2023-01-22T01:48:37.402Z,6.93
2023-01-22T01:51:10.424Z,7.40
2023-01-22T01:53:39.649Z,6.65
2023-01-22T01:56:14.797Z,6.18
2023-01-22T01:58:45.720Z,5.88
2023-01-22T02:01:16.396Z,7.35
2023-01-22T02:03:45.614Z,4.95
2023-01-22T02:06:16.648Z,6.00
2023-01-22T02:08:48.332Z,4.30
2023-01-22T02:11:20.978Z,5.65
2023-01-22T02:13:52.463Z,5.70
2023-01-22T02:16:21.297Z,4.65
2023-01-22T02:18:50.402Z,4.18
2023-01-22T02:21:38.129Z,4.30
2023-01-22T02:24:07.776Z,5.15
2023-01-22T02:26:36.323Z,5.47
2023-01-22T02:29:05.155Z,5.20
2023-01-22T02:31:33.127Z,4.38
2023-01-22T02:34:02.794Z,4.03
2023-01-22T02:36:33.246Z,4.20
2023-01-22T02:39:02.850Z,4.03
2023-01-22T02:41:30.876Z,4.32
2023-01-22T02:44:00.267Z,3.95
2023-01-22T02:46:28.289Z,3.75
2023-01-22T02:48:56.261Z,3.50
2023-01-22T02:51:24.671Z,3.72
2023-01-22T02:53:53.613Z,3.60
2023-01-22T02:56:23.664Z,3.60
2023-01-22T02:58:51.713Z,3.65
2023-01-22T03:01:21.692Z,3.75
2023-01-22T03:03:53.735Z,4.22
2023-01-22T03:06:23.439Z,4.43
2023-01-22T03:08:54.099Z,3.90
2023-01-22T03:11:24.037Z,4.80
2023-01-22T03:14:09.575Z,4.20
2023-01-22T03:16:55.356Z,3.95
2023-01-22T03:19:42.754Z,4.68
2023-01-22T03:22:17.963Z,4.35
2023-01-22T03:24:50.356Z,3.65
2023-01-22T03:27:21.618Z,3.58
2023-01-22T03:29:49.958Z,4.38
2023-01-22T03:32:23.240Z,4.00
2023-01-22T03:34:52.032Z,3.08
2023-01-22T03:37:20.292Z,3.17
2023-01-22T03:39:51.910Z,3.65
2023-01-22T03:42:28.309Z,3.95
2023-01-22T03:44:56.219Z,3.55
2023-01-22T03:47:25.566Z,4.03
2023-01-22T03:49:53.576Z,4.28
2023-01-22T03:52:21.889Z,3.90
2023-01-22T03:54:49.876Z,3.58
2023-01-22T03:57:18.606Z,3.72
2023-01-22T03:59:47.975Z,3.45
2023-01-22T04:02:16.724Z,3.67
2023-01-22T04:05:02.112Z,3.47
2023-01-22T04:07:31.619Z,3.25
2023-01-22T04:09:59.630Z,3.65
2023-01-22T04:12:27.565Z,2.88
2023-01-22T04:14:56.861Z,3.78
2023-01-22T04:17:26.702Z,3.40
2023-01-22T04:20:24.407Z,3.28
2023-01-22T04:23:11.066Z,3.13
2023-01-22T04:25:39.346Z,3.92
2023-01-22T04:28:10.855Z,2.97
2023-01-22T04:30:41.987Z,3.95
2023-01-22T04:33:39.309Z,4.30
2023-01-22T04:36:29.092Z,3.33
2023-01-22T04:38:57.217Z,3.47
2023-01-22T04:41:25.294Z,4.13
2023-01-22T04:43:53.635Z,3.05
2023-01-22T04:46:26.191Z,4.65
2023-01-22T04:48:54.450Z,4.03
2023-01-22T04:51:22.565Z,3.58
2023-01-22T04:53:50.739Z,4.28
2023-01-22T04:56:19.043Z,3.80
2023-01-22T04:58:47.453Z,4.05
2023-01-22T05:01:16.468Z,5.00
2023-01-22T05:03:46.782Z,4.97
2023-01-22T05:06:14.822Z,3.90
2023-01-22T05:08:42.832Z,3.95
2023-01-22T05:11:11.864Z,3.42
2023-01-22T05:13:48.264Z,3.60
2023-01-22T05:16:17.187Z,2.88
2023-01-22T05:18:46.453Z,4.07
2023-01-22T05:21:15.379Z,4.25
2023-01-22T05:23:44.361Z,3.42
2023-01-22T05:26:12.318Z,3.20
2023-01-22T05:28:52.614Z,4.20
2023-01-22T05:31:30.720Z,4.03
2023-01-22T05:34:03.639Z,3.95
2023-01-22T05:36:32.313Z,4.45
2023-01-22T05:39:06.202Z,4.43
2023-01-22T05:41:35.636Z,3.92
2023-01-22T05:44:03.786Z,4.25
2023-01-22T05:46:32.844Z,4.80
2023-01-22T05:49:20.682Z,4.20
2023-01-22T05:51:49.825Z,3.50
2023-01-22T05:54:19.094Z,3.45
2023-01-22T05:56:48.470Z,3.97
2023-01-22T05:59:16.661Z,3.90
2023-01-22T06:01:49.028Z,3.92
2023-01-22T06:04:17.055Z,2.22
2023-01-22T06:06:46.328Z,3.63
2023-01-22T06:09:14.484Z,3.80
2023-01-22T06:11:43.631Z,3.72
2023-01-22T06:14:12.014Z,4.50
2023-01-22T06:16:40.062Z,4.30
2023-01-22T06:19:12.773Z,3.65
2023-01-22T06:21:52.588Z,3.58
2023-01-22T06:24:26.863Z,3.88
2023-01-22T06:26:55.009Z,3.65
2023-01-22T06:29:29.573Z,4.45
2023-01-22T06:31:57.945Z,3.90
2023-01-22T06:34:26.116Z,4.72
2023-01-22T06:36:55.512Z,6.28
2023-01-22T06:39:26.958Z,7.00
2023-01-22T06:42:02.269Z,3.25
2023-01-22T06:44:30.949Z,3.05
2023-01-22T06:46:59.066Z,4.75
2023-01-22T06:49:28.704Z,4.18
2023-01-22T06:51:58.184Z,4.30
2023-01-22T06:54:26.170Z,5.15
2023-01-22T06:56:54.473Z,4.93
2023-01-22T06:59:24.527Z,4.00
2023-01-22T07:01:52.670Z,5.40
2023-01-22T07:04:20.750Z,4.38
2023-01-22T07:06:48.640Z,4.05
2023-01-22T07:09:17.878Z,4.10
2023-01-22T07:11:45.796Z,4.00
2023-01-22T07:14:14.768Z,4.40
2023-01-22T07:16:42.674Z,3.17
2023-01-22T07:19:10.600Z,3.25
2023-01-22T07:21:38.496Z,3.50
2023-01-22T07:24:07.220Z,3.53
2023-01-22T07:26:36.534Z,2.90
2023-01-22T07:29:04.457Z,3.30
2023-01-22T07:31:32.645Z,2.75
2023-01-22T07:34:00.602Z,3.83
2023-01-22T07:36:28.602Z,3.08
2023-01-22T07:38:57.169Z,3.20
2023-01-22T07:41:28.108Z,3.10
2023-01-22T07:43:59.588Z,3.20
2023-01-22T07:46:27.700Z,3.08
2023-01-22T07:48:55.720Z,3.40
2023-01-22T07:51:23.810Z,3.75
2023-01-22T07:53:51.767Z,3.83
2023-01-22T07:56:19.695Z,3.05
2023-01-22T07:58:47.938Z,4.00
2023-01-22T08:01:17.837Z,4.45
2023-01-22T08:03:47.164Z,3.00
2023-01-22T08:06:20.598Z,4.13
2023-01-22T08:08:48.554Z,3.78
2023-01-22T08:11:16.556Z,4.07
2023-01-22T08:13:44.494Z,3.33
2023-01-22T08:16:14.579Z,3.70
2023-01-22T08:18:43.901Z,3.22
2023-01-22T08:21:11.961Z,5.05
2023-01-22T08:23:39.873Z,3.63
2023-01-22T08:26:07.835Z,4.28
2023-01-22T08:28:35.769Z,2.75
2023-01-22T08:31:04.666Z,4.95
2023-01-22T08:33:33.889Z,3.90
2023-01-22T08:36:03.138Z,5.45
2023-01-22T08:38:31.127Z,4.97
2023-01-22T08:40:59.069Z,4.25
2023-01-22T08:43:27.010Z,3.80
2023-01-22T08:45:55.013Z,4.45
2023-01-22T08:48:22.960Z,3.80
2023-01-22T08:50:50.947Z,4.10
2023-01-22T08:53:20.240Z,2.60
2023-01-22T08:55:51.416Z,3.30
2023-01-22T08:58:20.949Z,3.00
2023-01-22T09:00:49.473Z,3.33
2023-01-22T09:03:17.426Z,4.45
2023-01-22T09:05:45.331Z,3.05
2023-01-22T09:08:13.385Z,3.50
2023-01-22T09:10:45.656Z,3.38
2023-01-22T09:13:16.721Z,3.72
2023-01-22T09:15:44.623Z,3.40
2023-01-22T09:18:12.796Z,3.88
2023-01-22T09:20:41.187Z,14.40
2023-01-22T09:23:09.223Z,4.47
2023-01-22T09:25:37.129Z,4.03
2023-01-22T09:28:08.910Z,3.65
2023-01-22T09:30:39.334Z,3.30
2023-01-22T09:33:07.367Z,4.20
2023-01-22T09:35:35.291Z,3.88
2023-01-22T09:38:05.631Z,4.40
2023-01-22T09:40:42.978Z,4.75
2023-01-22T09:43:24.756Z,3.70
2023-01-22T09:45:56.409Z,4.38
2023-01-22T09:48:30.311Z,4.07
2023-01-22T09:50:58.403Z,4.05
2023-01-22T09:53:26.349Z,4.28
2023-01-22T09:55:55.630Z,4.38
2023-01-22T09:58:26.830Z,4.18
2023-01-22T10:01:00.173Z,3.90
2023-01-22T10:03:33.462Z,5.40
2023-01-22T10:06:05.910Z,4.53
2023-01-22T10:08:38.828Z,4.35
2023-01-22T10:11:10.099Z,4.20
2023-01-22T10:13:41.011Z,4.05
2023-01-22T10:16:10.296Z,4.43
2023-01-22T10:18:47.034Z,4.25
2023-01-22T10:21:20.825Z,4.90
2023-01-22T10:23:50.246Z,4.32
2023-01-22T10:26:21.944Z,3.85
2023-01-22T10:28:55.281Z,4.45
2023-01-22T10:31:28.938Z,4.05
2023-01-22T10:33:59.360Z,4.60
2023-01-22T10:36:28.275Z,4.38
2023-01-22T10:39:07.505Z,2.97
2023-01-22T10:41:35.419Z,3.72
2023-01-22T10:44:20.871Z,4.65
2023-01-22T10:46:50.610Z,4.50
2023-01-22T10:49:21.036Z,4.18
2023-01-22T10:51:54.321Z,4.53
2023-01-22T10:54:28.268Z,3.92
2023-01-22T10:57:07.164Z,4.50
2023-01-22T10:59:37.617Z,5.38
2023-01-22T11:02:19.524Z,4.15
2023-01-22T11:04:47.781Z,4.70
2023-01-22T11:07:21.906Z,4.72
2023-01-22T11:09:55.528Z,4.18
2023-01-22T11:12:27.484Z,4.45
2023-01-22T11:15:04.705Z,4.07
2023-01-22T11:17:38.330Z,5.43
2023-01-22T11:20:17.775Z,4.45
2023-01-22T11:23:02.506Z,5.05
2023-01-22T11:25:41.996Z,5.22
2023-01-22T11:28:23.134Z,5.07
2023-01-22T11:31:06.088Z,4.75
2023-01-22T11:33:49.860Z,4.32
2023-01-22T11:36:23.537Z,5.07
2023-01-22T11:38:56.309Z,3.80
2023-01-22T11:41:51.656Z,4.55
2023-01-22T11:44:40.761Z,4.90
2023-01-22T11:47:34.324Z,3.88
2023-01-22T11:50:15.740Z,5.30
2023-01-22T11:52:49.276Z,5.07
2023-01-22T11:55:30.649Z,5.15
2023-01-22T11:58:08.385Z,4.18
2023-01-22T12:00:45.196Z,5.00
2023-01-22T12:03:45.788Z,4.47
2023-01-22T12:06:29.160Z,5.00
2023-01-22T12:09:08.284Z,5.85
2023-01-22T12:11:58.462Z,5.35
2023-01-22T12:14:52.513Z,6.20
2023-01-22T12:17:33.194Z,6.20
2023-01-22T12:20:27.309Z,5.57
2023-01-22T12:23:00.329Z,5.15
2023-01-22T12:25:37.226Z,5.70
2023-01-22T12:28:12.959Z,5.63
2023-01-22T12:30:48.990Z,6.45
2023-01-22T12:33:22.087Z,5.85
2023-01-22T12:35:52.795Z,6.75
2023-01-22T12:38:37.476Z,6.18
2023-01-22T12:41:27.643Z,6.43
2023-01-22T12:43:58.643Z,6.75
2023-01-22T12:46:35.101Z,6.75
2023-01-22T12:49:07.376Z,6.93
2023-01-22T12:51:42.447Z,6.50
2023-01-22T12:54:20.202Z,5.97
2023-01-22T12:56:48.884Z,5.72
2023-01-22T12:59:33.450Z,6.25
2023-01-22T13:02:03.600Z,6.78
2023-01-22T13:04:32.568Z,6.60
2023-01-22T13:07:22.474Z,6.03
2023-01-22T13:10:01.664Z,5.80
2023-01-22T13:12:47.062Z,6.93
2023-01-22T13:15:20.811Z,6.13
2023-01-22T13:18:06.325Z,5.65
2023-01-22T13:20:37.149Z,6.20
2023-01-22T13:23:08.268Z,5.40
2023-01-22T13:25:39.027Z,6.00
2023-01-22T13:28:10.431Z,5.68
2023-01-22T13:30:38.676Z,5.30
2023-01-22T13:33:14.206Z,5.57
2023-01-22T13:35:42.893Z,5.47
2023-01-22T13:38:21.146Z,5.63
2023-01-22T13:40:56.719Z,6.45
2023-01-22T13:43:25.531Z,5.18
2023-01-22T13:45:55.957Z,5.00
2023-01-22T13:48:25.932Z,4.95
2023-01-22T13:50:56.998Z,5.57
2023-01-22T13:53:33.421Z,5.78
2023-01-22T13:56:02.470Z,6.60
2023-01-22T13:58:48.043Z,5.47
2023-01-22T14:01:29.291Z,4.82
2023-01-22T14:04:02.206Z,5.30
2023-01-22T14:06:30.999Z,5.82
2023-01-22T14:09:00.291Z,6.07
2023-01-22T14:11:38.592Z,4.97
2023-01-22T14:14:16.220Z,5.13
2023-01-22T14:16:44.207Z,4.65
2023-01-22T14:19:12.539Z,5.40
2023-01-22T14:21:40.586Z,4.85
2023-01-22T14:24:10.644Z,5.50
2023-01-22T14:26:38.631Z,5.75
2023-01-22T14:29:06.579Z,5.75
2023-01-22T14:31:35.546Z,6.00
2023-01-22T14:34:03.787Z,5.43
2023-01-22T14:36:32.202Z,5.70
2023-01-22T14:39:00.222Z,6.50
2023-01-22T14:41:29.466Z,6.28
2023-01-22T14:43:57.404Z,6.28
2023-01-22T14:46:25.495Z,7.15
2023-01-22T14:48:53.386Z,6.10
2023-01-22T14:51:21.566Z,6.25
2023-01-22T14:53:49.508Z,5.20
2023-01-22T14:56:17.406Z,5.88
2023-01-22T14:58:49.558Z,5.90
2023-01-22T15:01:19.857Z,6.55
2023-01-22T15:03:48.594Z,6.07
2023-01-22T15:06:16.563Z,6.60
2023-01-22T15:08:44.507Z,6.32
2023-01-22T15:11:12.440Z,6.40
2023-01-22T15:13:42.904Z,5.47
2023-01-22T15:16:12.734Z,6.13
2023-01-22T15:18:40.745Z,5.68
2023-01-22T15:21:08.792Z,5.97
2023-01-22T15:23:36.928Z,6.00
2023-01-22T15:26:07.946Z,5.32
2023-01-22T15:28:36.240Z,6.95
2023-01-22T15:31:07.771Z,7.78
2023-01-22T15:33:37.829Z,5.80
2023-01-22T15:36:06.688Z,6.70
2023-01-22T15:38:34.794Z,7.72
2023-01-22T15:41:04.425Z,7.85
2023-01-22T15:43:32.456Z,9.48
2023-01-22T15:46:02.883Z,9.38
2023-01-22T15:48:30.845Z,13.02
2023-01-22T15:51:09.082Z,11.13
2023-01-22T15:53:37.284Z,8.75
2023-01-22T15:56:06.388Z,10.43
2023-01-22T15:58:34.963Z,7.93
2023-01-22T16:01:03.041Z,9.40
2023-01-22T16:03:31.012Z,11.23
2023-01-22T16:06:10.572Z,7.55
2023-01-22T16:08:38.641Z,6.97
2023-01-22T16:11:06.607Z,7.32
2023-01-22T16:13:35.080Z,8.35
2023-01-22T16:16:04.875Z,6.93
2023-01-22T16:18:36.151Z,5.28
2023-01-22T16:21:05.543Z,6.05
2023-01-22T16:23:37.552Z,5.97
2023-01-22T16:26:09.893Z,6.70
2023-01-22T16:28:37.944Z,5.20
2023-01-22T16:31:07.363Z,7.03
2023-01-22T16:33:37.199Z,5.63
2023-01-22T16:36:08.052Z,5.45
2023-01-22T16:38:37.901Z,6.28
2023-01-22T16:41:27.833Z,6.53
2023-01-22T16:43:58.486Z,6.15
2023-01-22T16:46:28.811Z,5.60
2023-01-22T16:48:58.003Z,6.10
2023-01-22T16:51:27.887Z,5.32
2023-01-22T16:53:57.268Z,6.60
2023-01-22T16:56:25.212Z,6.28
2023-01-22T16:58:53.189Z,6.35
2023-01-22T17:01:22.495Z,5.93
2023-01-22T17:03:50.555Z,6.15
2023-01-22T17:06:27.379Z,6.35
2023-01-22T17:08:56.837Z,6.07
2023-01-22T17:11:24.873Z,6.47
2023-01-22T17:13:53.332Z,6.20
2023-01-22T17:16:21.311Z,5.97
2023-01-22T17:18:49.246Z,6.13
2023-01-22T17:21:19.619Z,5.25
2023-01-22T17:23:47.532Z,6.20
2023-01-22T17:26:18.306Z,5.40
2023-01-22T17:28:46.319Z,5.45
2023-01-22T17:31:17.026Z,5.60
2023-01-22T17:33:46.237Z,5.13
2023-01-22T17:36:16.153Z,5.43
2023-01-22T17:38:44.322Z,5.47
2023-01-22T17:41:19.807Z,4.78
2023-01-22T17:43:48.754Z,5.18
2023-01-22T17:46:18.464Z,5.65
2023-01-22T17:48:48.336Z,5.20
2023-01-22T17:51:20.708Z,5.50
2023-01-22T17:53:50.587Z,6.05
2023-01-22T17:56:22.131Z,4.53
2023-01-22T17:58:51.787Z,4.75
2023-01-22T18:01:21.508Z,5.85
2023-01-22T18:03:49.493Z,6.60
2023-01-22T18:06:17.918Z,5.70
2023-01-22T18:08:45.845Z,5.82
2023-01-22T18:11:15.379Z,5.05
2023-01-22T18:13:45.300Z,5.45
2023-01-22T18:16:16.419Z,5.10
2023-01-22T18:18:45.074Z,5.40
2023-01-22T18:21:15.157Z,5.53
2023-01-22T18:23:43.264Z,6.97
2023-01-22T18:26:11.391Z,6.68
2023-01-22T18:28:39.683Z,5.50
2023-01-22T18:31:10.747Z,5.38
2023-01-22T18:33:39.678Z,5.63
2023-01-22T18:36:12.594Z,5.90
2023-01-22T18:38:41.264Z,6.35
2023-01-22T18:41:11.296Z,5.80
2023-01-22T18:43:39.508Z,5.88
2023-01-22T18:46:12.114Z,6.15
2023-01-22T18:48:41.704Z,5.65
2023-01-22T18:51:11.457Z,4.97
2023-01-22T18:53:40.732Z,5.40
2023-01-22T18:56:10.278Z,5.65
2023-01-22T18:58:38.602Z,4.75
2023-01-22T19:01:14.205Z,6.18
2023-01-22T19:03:43.989Z,6.07
2023-01-22T19:06:14.426Z,5.50
2023-01-22T19:08:44.097Z,6.45
2023-01-22T19:11:12.740Z,7.00
2023-01-22T19:13:41.805Z,7.68
2023-01-22T19:16:14.188Z,6.20
2023-01-22T19:18:43.836Z,5.35
2023-01-22T19:21:13.886Z,5.55
2023-01-22T19:23:45.616Z,5.45
2023-01-22T19:26:16.354Z,5.45
2023-01-22T19:28:44.284Z,5.60
2023-01-22T19:31:17.966Z,6.32
2023-01-22T19:33:46.009Z,4.35
2023-01-22T19:36:15.858Z,4.20
2023-01-22T19:38:46.652Z,3.53
2023-01-22T19:41:17.074Z,4.22
2023-01-22T19:43:45.122Z,3.15
2023-01-22T19:46:14.620Z,4.40
2023-01-22T19:48:44.132Z,4.15
2023-01-22T19:51:14.536Z,4.20
2023-01-22T19:53:45.301Z,3.47
2023-01-22T19:56:18.709Z,3.65
2023-01-22T19:58:46.867Z,4.13
2023-01-22T20:01:16.124Z,3.78
2023-01-22T20:03:47.636Z,4.45
2023-01-22T20:06:17.884Z,4.05
2023-01-22T20:08:46.416Z,4.10
2023-01-22T20:11:15.548Z,4.43
2023-01-22T20:13:45.999Z,4.68
2023-01-22T20:16:22.453Z,4.35
2023-01-22T20:18:52.766Z,13.75
2023-01-22T20:21:22.150Z,6.03
2023-01-22T20:23:51.190Z,4.53
2023-01-22T20:26:20.949Z,4.63
2023-01-22T20:28:49.063Z,4.65
2023-01-22T20:31:23.127Z,3.75
2023-01-22T20:33:54.606Z,4.65
2023-01-22T20:36:25.435Z,4.38
2023-01-22T20:38:54.164Z,4.53
2023-01-22T20:41:23.129Z,4.20
2023-01-22T20:43:51.467Z,4.22
2023-01-22T20:46:21.265Z,4.20
2023-01-22T20:48:50.305Z,5.03
2023-01-22T20:51:21.917Z,4.55
2023-01-22T20:53:51.362Z,4.00
2023-01-22T20:56:22.590Z,4.30
2023-01-22T20:58:57.056Z,4.97
2023-01-22T21:01:25.637Z,4.88
2023-01-22T21:03:54.693Z,3.70
2023-01-22T21:06:28.254Z,3.90
2023-01-22T21:08:57.078Z,3.70
2023-01-22T21:11:27.160Z,3.53
2023-01-22T21:13:57.326Z,4.35
2023-01-22T21:16:29.442Z,3.58
2023-01-22T21:18:59.622Z,3.78
2023-01-22T21:21:30.596Z,3.65
2023-01-22T21:23:59.150Z,4.65
2023-01-22T21:26:28.736Z,3.28
2023-01-22T21:28:58.890Z,3.65
2023-01-22T21:31:30.026Z,3.95
2023-01-22T21:34:03.119Z,3.95
2023-01-22T21:36:34.267Z,4.47
2023-01-22T21:39:02.229Z,3.97
2023-01-22T21:41:30.144Z,4.18
2023-01-22T21:44:15.661Z,4.78
2023-01-22T21:46:45.251Z,4.47
2023-01-22T21:49:19.904Z,4.85
2023-01-22T21:51:51.750Z,7.00
2023-01-22T21:54:25.306Z,5.50
2023-01-22T21:56:54.223Z,4.75
2023-01-22T21:59:22.232Z,10.38
2023-01-22T22:01:53.270Z,8.10
2023-01-22T22:04:22.326Z,5.10
2023-01-22T22:06:51.766Z,4.45
2023-01-22T22:09:22.135Z,5.10
2023-01-22T22:11:50.414Z,4.78
2023-01-22T22:14:20.988Z,5.35
2023-01-22T22:16:50.013Z,5.32
2023-01-22T22:19:19.499Z,5.32
2023-01-22T22:21:47.881Z,18.00
2023-01-22T22:24:17.461Z,8.95
2023-01-22T22:26:46.345Z,5.72
2023-01-22T22:29:17.468Z,5.80
2023-01-22T22:31:45.448Z,5.35
2023-01-22T22:34:13.381Z,5.85
2023-01-22T22:36:42.370Z,6.20
2023-01-22T22:39:11.335Z,5.00
2023-01-22T22:41:40.781Z,6.05
2023-01-22T22:44:10.293Z,5.25
2023-01-22T22:46:39.862Z,4.70
2023-01-22T22:49:07.867Z,4.80
2023-01-22T22:51:37.639Z,4.88
2023-01-22T22:54:07.669Z,5.90
2023-01-22T22:56:35.865Z,6.07
2023-01-22T22:59:05.548Z,5.22
2023-01-22T23:01:37.735Z,6.60
2023-01-22T23:04:06.293Z,8.05
2023-01-22T23:06:36.632Z,12.77
2023-01-22T23:09:11.867Z,14.13
2023-01-22T23:11:39.874Z,6.85
2023-01-22T23:14:11.563Z,4.82
2023-01-22T23:16:42.649Z,4.80
2023-01-22T23:19:16.112Z,4.53
2023-01-22T23:21:49.599Z,5.40
2023-01-22T23:24:17.549Z,5.53
2023-01-22T23:26:46.410Z,5.88
2023-01-22T23:29:17.498Z,5.20
2023-01-22T23:31:45.522Z,4.63
2023-01-22T23:34:14.850Z,5.80
2023-01-22T23:36:45.119Z,4.90
2023-01-22T23:39:14.716Z,6.88
2023-01-22T23:41:42.652Z,7.40
2023-01-22T23:44:10.650Z,7.18
2023-01-22T23:46:39.931Z,6.32
2023-01-22T23:49:07.895Z,4.47
2023-01-22T23:51:36.712Z,4.50
2023-01-22T23:54:04.773Z,4.78
2023-01-22T23:56:33.045Z,4.53
2023-01-22T23:59:01.356Z,4.20
